Time;durP1;ratioP1;P1;durP2;ratioP2;P2;SDS_P1;SDS_P2;PMS_P1;PMS_P2;Temp;Humidity;BMP_temperature;BMP_pressure;BME280_temperature;BME280_humidity;BME280_pressure;Samples;Min_cycle;Max_cycle;Signal;HPM_P1;HPM_P2
2021/12/01 00:02:53;;;;;;;0.32;0.32;;;;;;;-1.29;100.00;84982.38;4810459;29;20072;-51
2021/12/01 00:09:39;;;;;;;0.30;0.30;;;;;;;-1.16;100.00;84971.91;5108082;27;20245;-51
2021/12/01 00:13:28;;;;;;;0.63;0.20;;;;;;;-1.10;100.00;84974.59;4884425;29;20096;-50
2021/12/01 00:17:13;;;;;;;0.55;0.47;;;;;;;-1.05;100.00;84966.56;4779723;29;20047;-49
2021/12/01 00:23:59;;;;;;;0.40;0.20;;;;;;;-1.10;100.00;84966.53;5107541;27;20124;-50
2021/12/01 00:27:46;;;;;;;0.10;0.10;;;;;;;-1.10;100.00;84961.91;4908607;29;20166;-50
2021/12/01 00:31:12;;;;;;;0.20;0.20;;;;;;;-1.09;100.00;84955.34;4816347;29;20555;-50
2021/12/01 00:34:01;;;;;;;0.75;0.40;;;;;;;-1.10;100.00;84959.22;4798905;29;20050;-50
2021/12/01 00:36:28;;;;;;;0.50;0.40;;;;;;;-1.08;100.00;84948.75;4780545;29;20487;-54
2021/12/01 00:38:54;;;;;;;0.90;0.30;;;;;;;-1.08;100.00;84961.44;4792912;29;20129;-50
2021/12/01 00:41:22;;;;;;;0.70;0.50;;;;;;;-1.12;100.00;84959.00;4781512;29;20146;-51
2021/12/01 00:43:50;;;;;;;0.10;0.10;;;;;;;-1.13;100.00;84958.25;4786751;29;20046;-50
2021/12/01 00:46:37;;;;;;;0.85;0.40;;;;;;;-1.11;100.00;84952.41;4795890;29;20089;-50
2021/12/01 00:49:04;;;;;;;0.20;0.20;;;;;;;-1.09;100.00;84951.91;4802094;29;20055;-51
2021/12/01 00:51:29;;;;;;;0.75;0.43;;;;;;;-1.11;100.00;84949.72;4779464;29;20035;-51
2021/12/01 00:53:55;;;;;;;0.35;0.20;;;;;;;-1.11;100.00;84946.31;4777883;29;20055;-53
2021/12/01 00:56:21;;;;;;;0.88;0.47;;;;;;;-1.11;100.00;84949.72;4781169;29;20467;-53
2021/12/01 00:58:48;;;;;;;0.60;0.60;;;;;;;-1.09;100.00;84955.34;4791456;29;20444;-55
2021/12/01 01:01:14;;;;;;;0.55;0.55;;;;;;;-1.11;100.00;84949.72;4782006;29;20064;-49
2021/12/01 01:03:40;;;;;;;0.30;0.30;;;;;;;-1.11;100.00;84935.59;4849047;29;20139;-52
2021/12/01 01:06:05;;;;;;;0.68;0.52;;;;;;;-1.10;100.00;84945.09;4889715;29;20511;-50
2021/12/01 01:08:31;;;;;;;0.40;0.40;;;;;;;-1.11;100.00;84944.34;4992007;28;20033;-50
2021/12/01 01:16:23;;;;;;;1.67;0.52;;;;;;;-1.14;100.00;84945.34;5085434;28;20035;-50
2021/12/01 01:18:53;;;;;;;0.20;0.20;;;;;;;-1.11;100.00;84947.03;5085048;28;20495;-50
2021/12/01 01:21:22;;;;;;;0.20;0.10;;;;;;;-1.10;100.00;84945.81;5064715;28;20060;-50
2021/12/01 01:23:49;;;;;;;0.25;0.25;;;;;;;-1.04;100.00;84946.53;5081210;28;20104;-53
2021/12/01 01:26:18;;;;;;;0.20;0.20;;;;;;;-1.04;100.00;84949.22;5082685;28;20137;-50
2021/12/01 01:28:44;;;;;;;0.20;0.20;;;;;;;-1.02;100.00;84959.47;5084328;28;20107;-49
2021/12/01 01:31:12;;;;;;;0.38;0.38;;;;;;;-0.99;100.00;84953.13;5085223;28;20349;-51
2021/12/01 01:33:39;;;;;;;0.52;0.52;;;;;;;-0.95;100.00;84943.63;5055535;28;20024;-49
2021/12/01 01:36:05;;;;;;;0.43;0.43;;;;;;;-0.91;100.00;84954.84;5071764;28;20040;-50
2021/12/01 01:38:32;;;;;;;0.80;0.60;;;;;;;-0.87;100.00;84943.13;5070941;28;20040;-50
2021/12/01 01:41:00;;;;;;;0.30;0.30;;;;;;;-0.84;100.00;84947.50;5055316;28;20445;-50
2021/12/01 01:43:26;;;;;;;0.30;0.30;;;;;;;-0.83;100.00;84938.97;5053137;28;20041;-51
2021/12/01 01:45:54;;;;;;;0.38;0.30;;;;;;;-0.78;100.00;84943.63;5054938;28;20449;-50
2021/12/01 01:48:31;;;;;;;0.30;0.30;;;;;;;-0.81;100.00;84943.84;5054449;28;20032;-49
2021/12/01 01:51:05;;;;;;;0.35;0.35;;;;;;;-0.85;100.00;84943.38;5071376;28;20041;-51
2021/12/01 01:53:33;;;;;;;1.10;0.30;;;;;;;-0.85;100.00;84938.00;5070748;28;20119;-50
2021/12/01 01:56:02;;;;;;;0.60;0.47;;;;;;;-0.86;100.00;84939.25;5071278;28;20086;-50
2021/12/01 01:58:29;;;;;;;1.40;0.70;;;;;;;-0.84;100.00;84945.59;5053680;28;20563;-50
2021/12/01 02:01:07;;;;;;;17.75;5.97;;;;;;;-0.86;100.00;84948.00;5051205;28;20369;-51
2021/12/01 02:03:39;;;;;;;4.00;1.70;;;;;;;-0.87;100.00;84946.53;5053770;28;20032;-53
2021/12/01 02:06:07;;;;;;;2.40;0.80;;;;;;;-0.92;100.00;84948.03;5054509;28;20429;-52
2021/12/01 02:08:35;;;;;;;1.25;0.80;;;;;;;-0.87;100.00;84929.69;5053887;28;20747;-53
2021/12/01 02:11:05;;;;;;;0.80;0.65;;;;;;;-0.86;100.00;84925.81;5051052;28;20036;-52
2021/12/01 02:13:33;;;;;;;1.25;0.63;;;;;;;-0.86;100.00;84917.75;5053654;28;20491;-52
2021/12/01 02:16:00;;;;;;;0.90;0.50;;;;;;;-0.88;100.00;84922.88;5050749;28;20029;-52
2021/12/01 02:18:27;;;;;;;0.68;0.57;;;;;;;-0.86;100.00;84925.81;5087133;28;20040;-53
2021/12/01 02:21:16;;;;;;;0.57;0.57;;;;;;;-0.88;100.00;84915.56;5054089;28;20032;-52
2021/12/01 02:23:48;;;;;;;0.60;0.50;;;;;;;-0.90;100.00;84912.63;5070289;28;20028;-54
2021/12/01 02:26:17;;;;;;;0.70;0.60;;;;;;;-0.86;100.00;84915.09;5070435;28;20036;-52
2021/12/01 02:28:45;;;;;;;0.60;0.60;;;;;;;-0.94;100.00;84912.16;5070088;28;20032;-53
2021/12/01 02:35:38;;;;;;;0.60;0.60;;;;;;;-0.96;100.00;84901.16;5072098;28;20418;-51
2021/12/01 02:39:25;;;;;;;0.80;0.73;;;;;;;-0.95;100.00;84898.00;4939378;29;20044;-52
2021/12/01 02:43:11;;;;;;;0.73;0.73;;;;;;;-0.91;100.00;84900.44;4811600;29;20559;-54
2021/12/01 02:49:29;;;;;;;0.60;0.60;;;;;;;-0.89;100.00;84889.94;5083345;28;20383;-52
2021/12/01 02:53:15;;;;;;;0.50;0.50;;;;;;;-0.90;100.00;84875.06;4901286;29;20052;-53
2021/12/01 02:57:02;;;;;;;0.40;0.40;;;;;;;-0.87;100.00;84873.34;4748629;30;20059;-53
2021/12/01 03:04:48;;;;;;;0.38;0.30;;;;;;;-0.92;100.00;84867.50;5108316;27;20910;-51
2021/12/01 03:08:34;;;;;;;1.52;1.40;;;;;;;-0.91;100.00;84881.66;4985305;28;20125;-52
2021/12/01 03:12:01;;;;;;;0.50;0.50;;;;;;;-0.92;100.00;84872.88;4814328;29;20047;-53
2021/12/01 03:18:26;;;;;;;0.50;0.50;;;;;;;-0.92;100.00;84864.09;5189827;27;20386;-53
2021/12/01 03:22:13;;;;;;;0.50;0.50;;;;;;;-0.91;100.00;84854.81;4965640;28;20055;-52
2021/12/01 03:32:46;;;;;;;0.43;0.40;;;;;;;-0.86;100.00;84853.34;5189791;27;20390;-53
2021/12/01 03:36:32;;;;;;;0.45;0.20;;;;;;;-0.78;100.00;84844.31;5005468;28;20050;-53
2021/12/01 03:54:48;;;;;;;1.08;0.60;;;;;;;-0.67;100.00;84816.69;5108022;27;20129;-53
2021/12/01 03:58:34;;;;;;;0.32;0.30;;;;;;;-0.60;100.00;84812.75;4966062;28;20415;-53
2021/12/01 04:09:51;;;;;;;9.52;3.45;;;;;;;-0.60;100.00;84808.13;5191081;27;20379;-53
2021/12/01 04:13:37;;;;;;;3.53;1.48;;;;;;;-0.64;100.00;84804.22;4941548;29;20050;-53
2021/12/01 04:17:24;;;;;;;7.82;2.30;;;;;;;-0.64;100.00;84796.91;4799167;29;20545;-53
2021/12/01 04:24:10;;;;;;;7.75;1.98;;;;;;;-0.67;100.00;84779.13;5127976;27;20342;-54
2021/12/01 04:27:56;;;;;;;3.85;1.60;;;;;;;-0.65;100.00;84779.34;4903305;29;20386;-53
2021/12/01 04:49:54;;;;;;;8.07;2.60;;;;;;;-0.93;100.00;84737.22;5149081;27;20396;-51
2021/12/01 04:53:00;;;;;;;4.70;2.00;;;;;;;-0.95;100.00;84722.88;4904084;29;20449;-51
2021/12/01 04:55:28;;;;;;;6.90;2.33;;;;;;;-0.94;100.00;84721.63;4901251;29;20084;-52
2021/12/01 04:57:54;;;;;;;8.48;3.00;;;;;;;-0.97;100.00;84728.72;4872027;29;20040;-54
2021/12/01 05:00:28;;;;;;;11.35;4.22;;;;;;;-0.99;100.00;84725.06;4870126;29;20048;-54
2021/12/01 05:02:55;;;;;;;7.30;2.90;;;;;;;-1.04;100.00;84726.53;4887122;29;20186;-54
2021/12/01 05:05:21;;;;;;;5.57;2.30;;;;;;;-1.07;100.00;84724.84;4869876;29;20513;-51
2021/12/01 05:07:47;;;;;;;4.47;2.00;;;;;;;-1.11;100.00;84727.06;4871983;29;20036;-53
2021/12/01 05:10:13;;;;;;;5.90;2.70;;;;;;;-1.15;100.00;84724.66;4885282;29;20397;-51
2021/12/01 05:12:39;;;;;;;10.25;3.20;;;;;;;-1.15;100.00;84723.88;4871584;29;20040;-54
2021/12/01 05:15:06;;;;;;;5.72;2.30;;;;;;;-1.29;100.00;84722.22;4869307;29;20064;-54
2021/12/01 05:17:32;;;;;;;8.70;3.38;;;;;;;-1.38;100.00;84715.19;4887289;29;20044;-51
2021/12/01 05:19:57;;;;;;;18.00;8.18;;;;;;;-1.33;100.00;84705.69;4869604;29;20043;-53
2021/12/01 05:22:25;;;;;;;11.75;5.20;;;;;;;-1.33;100.00;84708.34;4871297;29;20057;-53
2021/12/01 05:24:51;;;;;;;7.03;3.90;;;;;;;-1.36;100.00;84710.06;4869465;29;20040;-54
2021/12/01 05:27:21;;;;;;;4.50;2.40;;;;;;;-1.42;100.00;84710.09;4871127;29;20120;-54
2021/12/01 05:29:48;;;;;;;2.85;1.60;;;;;;;-1.48;100.00;84714.72;4969382;28;20040;-54
2021/12/01 05:32:15;;;;;;;3.65;1.60;;;;;;;-1.52;100.00;84714.25;5071569;28;20032;-54
2021/12/01 05:34:41;;;;;;;5.13;2.17;;;;;;;-1.63;100.00;84703.53;5089010;28;20034;-50
2021/12/01 05:37:08;;;;;;;2.83;1.73;;;;;;;-1.69;100.00;84705.50;5071538;28;20072;-50
2021/12/01 05:39:34;;;;;;;2.70;1.55;;;;;;;-1.69;100.00;84702.81;5080627;28;20039;-52
2021/12/01 05:42:00;;;;;;;6.57;2.42;;;;;;;-1.72;100.00;84698.44;5071222;28;20031;-51
2021/12/01 05:44:29;;;;;;;6.95;2.72;;;;;;;-1.68;100.00;84698.91;5071820;28;20035;-51
2021/12/01 05:46:55;;;;;;;4.53;2.20;;;;;;;-1.72;100.00;84687.72;5070331;28;20516;-50
2021/12/01 05:49:21;;;;;;;2.25;1.50;;;;;;;-1.65;100.00;84690.66;5088438;28;20044;-52
2021/12/01 05:51:47;;;;;;;5.82;2.63;;;;;;;-1.70;100.00;84686.03;5105247;28;20031;-51
2021/12/01 05:54:13;;;;;;;3.70;2.30;;;;;;;-1.69;100.00;84678.72;5088787;28;20142;-51
2021/12/01 05:56:39;;;;;;;7.82;3.00;;;;;;;-1.66;100.00;84677.72;5070943;28;20057;-52
2021/12/01 05:59:05;;;;;;;8.63;3.45;;;;;;;-1.63;100.00;84677.47;5082790;28;20119;-51
2021/12/01 06:01:31;;;;;;;8.00;2.53;;;;;;;-1.55;100.00;84674.28;5057813;28;20483;-51
2021/12/01 06:03:57;;;;;;;3.38;1.00;;;;;;;-1.49;100.00;84670.34;5073705;28;20089;-51
2021/12/01 06:06:23;;;;;;;2.90;1.10;;;;;;;-1.51;100.00;84669.38;5074931;28;20491;-51
2021/12/01 06:08:48;;;;;;;2.63;1.63;;;;;;;-1.52;100.00;84668.66;5057404;28;20024;-51
2021/12/01 06:11:14;;;;;;;11.85;3.83;;;;;;;-1.54;100.00;84660.41;5058097;28;20040;-50
2021/12/01 06:13:41;;;;;;;13.00;5.63;;;;;;;-1.53;100.00;84656.50;5057363;28;20391;-50
2021/12/01 06:16:07;;;;;;;6.38;3.40;;;;;;;-1.57;100.00;84656.00;5074518;28;20461;-50
2021/12/01 06:18:34;;;;;;;8.43;3.80;;;;;;;-1.74;100.00;84653.38;5056365;28;20012;-52
2021/12/01 06:21:01;;;;;;;5.40;2.65;;;;;;;-1.77;100.00;84646.31;5057894;28;20068;-50
2021/12/01 06:23:26;;;;;;;6.10;2.33;;;;;;;-1.70;100.00;84639.75;5056918;28;20551;-51
2021/12/01 06:25:52;;;;;;;4.20;2.15;;;;;;;-1.69;100.00;84638.50;5074567;28;20043;-51
2021/12/01 06:28:18;;;;;;;5.07;2.22;;;;;;;-1.70;100.00;84634.38;5060431;28;20024;-51
2021/12/01 06:30:44;;;;;;;3.10;1.77;;;;;;;-1.68;100.00;84638.03;5057797;28;20475;-51
2021/12/01 06:33:50;;;;;;;3.30;1.83;;;;;;;-1.66;100.00;84637.53;5057013;28;20019;-52
2021/12/01 06:37:37;;;;;;;8.68;3.35;;;;;;;-1.68;100.00;84630.00;4878306;29;20156;-52
2021/12/01 06:51:57;;;;;;;5.38;2.30;;;;;;;-1.56;100.00;84638.00;5149109;27;20374;-51
2021/12/01 06:55:44;;;;;;;8.00;2.80;;;;;;;-1.58;100.00;84638.47;4927734;29;20087;-51
2021/12/01 07:09:51;;;;;;;6.82;3.03;;;;;;;-1.63;100.00;84633.84;5191065;27;20386;-54
2021/12/01 07:13:37;;;;;;;6.25;2.40;;;;;;;-1.75;100.00;84624.41;4984900;28;20046;-53
2021/12/01 07:17:06;;;;;;;3.60;2.10;;;;;;;-1.69;100.00;84630.47;4835117;29;20608;-54
2021/12/01 07:24:32;;;;;;;18.00;7.70;;;;;;;-1.72;100.00;84618.06;5099017;27;20140;-53
2021/12/01 07:28:19;;;;;;;10.88;5.18;;;;;;;-1.70;100.00;84602.22;4965807;28;20047;-51
2021/12/01 07:39:51;;;;;;;5.93;2.25;;;;;;;-1.77;100.00;84606.13;5191129;27;20378;-52
2021/12/01 07:43:38;;;;;;;1.75;1.17;;;;;;;-1.75;100.00;84597.59;4942061;29;20051;-51
2021/12/01 07:54:54;;;;;;;7.20;2.60;;;;;;;-2.12;100.00;84577.97;5191350;27;21169;-51
2021/12/01 07:58:41;;;;;;;7.20;2.80;;;;;;;-2.13;100.00;84575.78;4941902;29;20051;-50
2021/12/01 08:10:02;;;;;;;9.27;4.10;;;;;;;-0.38;100.00;84580.97;5149408;27;20381;-50
2021/12/01 08:13:48;;;;;;;10.15;4.25;;;;;;;0.81;100.00;84567.78;4904250;29;20056;-51
2021/12/01 08:17:35;;;;;;;12.52;5.00;;;;;;;2.26;100.00;84550.00;4778196;30;20086;-52
2021/12/01 08:24:21;;;;;;;2.20;1.35;;;;;;;4.14;87.19;84547.13;5107718;27;20388;-54
2021/12/01 08:28:08;;;;;;;1.70;1.20;;;;;;;4.89;81.12;84543.50;4927314;29;20040;-57
2021/12/01 08:49:53;;;;;;;12.90;5.97;;;;;;;6.73;62.79;84511.47;5067545;28;20375;-58
2021/12/01 08:53:41;;;;;;;4.53;2.50;;;;;;;7.55;59.51;84513.09;4960679;28;20102;-57
2021/12/01 09:04:55;;;;;;;0.70;0.70;;;;;;;8.07;56.45;84510.72;5191101;27;20371;-59
2021/12/01 09:08:41;;;;;;;2.45;1.58;;;;;;;8.33;55.52;84502.56;4942377;29;20187;-60
2021/12/01 09:19:58;;;;;;;7.00;2.13;;;;;;;8.68;52.50;84519.78;5108031;27;20384;-63
2021/12/01 09:23:44;;;;;;;16.58;4.00;;;;;;;8.54;51.32;84527.50;4934202;29;20044;-63
2021/12/01 09:27:11;;;;;;;16.42;4.97;;;;;;;8.27;52.24;84522.56;4795707;29;20224;-63
2021/12/01 09:34:51;;;;;;;18.90;5.47;;;;;;;7.80;51.59;84513.19;5190977;27;20734;-60
2021/12/01 09:38:38;;;;;;;10.43;3.38;;;;;;;7.33;51.89;84508.47;4942262;29;20050;-61
2021/12/01 09:49:54;;;;;;;7.85;2.28;;;;;;;4.04;61.16;84528.66;5099716;27;20767;-61
2021/12/01 09:53:41;;;;;;;9.57;3.20;;;;;;;4.15;59.90;84526.94;4897274;29;20135;-58
2021/12/01 10:04:59;;;;;;;11.60;3.35;;;;;;;5.93;56.21;84495.50;5099985;27;20382;-59
2021/12/01 10:08:45;;;;;;;13.82;4.22;;;;;;;5.96;57.27;84499.13;4897580;29;20040;-60
2021/12/01 10:20:03;;;;;;;8.55;2.83;;;;;;;4.92;60.30;84482.84;5099759;27;20381;-61
2021/12/01 10:23:16;;;;;;;7.07;2.30;;;;;;;4.47;59.62;84488.75;4897954;29;20060;-63
2021/12/01 10:25:43;;;;;;;8.80;2.78;;;;;;;4.61;59.70;84475.84;4893180;29;20066;-62
2021/12/01 10:28:29;;;;;;;8.73;2.97;;;;;;;4.07;60.62;84469.38;4871928;29;20040;-61
2021/12/01 10:30:55;;;;;;;9.18;2.50;;;;;;;3.41;62.89;84473.84;4893007;29;20049;-62
2021/12/01 10:33:44;;;;;;;5.25;1.90;;;;;;;2.88;65.54;84468.59;4871369;29;20054;-61
2021/12/01 10:37:40;;;;;;;7.25;2.20;;;;;;;2.93;66.67;84465.06;4794984;29;20081;-62
2021/12/01 10:59:52;;;;;;;5.90;2.08;;;;;;;1.52;74.80;84456.16;5108042;27;20380;-62
2021/12/01 11:03:47;;;;;;;6.20;1.67;;;;;;;1.74;75.74;84447.00;4933923;29;20083;-62
2021/12/01 11:14:51;;;;;;;4.70;1.73;;;;;;;2.28;73.22;84415.38;5190972;27;20389;-58
2021/12/01 11:18:37;;;;;;;4.00;1.30;;;;;;;2.99;70.71;84390.06;4942705;29;20047;-58
2021/12/01 11:22:25;;;;;;;3.75;1.73;;;;;;;2.03;73.57;84396.00;4815921;29;20176;-59
2021/12/01 11:29:55;;;;;;;2.50;1.17;;;;;;;3.10;69.54;84372.88;5107740;27;20886;-61
2021/12/01 11:33:45;;;;;;;1.02;0.90;;;;;;;3.39;65.29;84373.69;4984830;28;20088;-58
2021/12/01 11:45:05;;;;;;;3.47;1.70;;;;;;;3.04;67.65;84359.50;5191010;27;20386;-58
2021/12/01 11:47:53;;;;;;;1.85;1.20;;;;;;;3.10;68.33;84349.28;5018267;28;20052;-59
2021/12/01 11:50:32;;;;;;;1.52;0.95;;;;;;;3.29;66.63;84359.19;5000224;28;20452;-59
2021/12/01 11:53:20;;;;;;;0.93;0.70;;;;;;;3.24;66.60;84357.34;5003788;28;20044;-59
2021/12/01 11:56:04;;;;;;;1.98;0.93;;;;;;;3.14;66.83;84344.31;4995560;28;20602;-58
2021/12/01 11:59:05;;;;;;;1.70;1.05;;;;;;;3.06;66.61;84351.63;4998815;28;20944;-58
2021/12/01 12:01:36;;;;;;;0.93;0.80;;;;;;;2.76;66.35;84343.22;5005610;28;20136;-58
2021/12/01 12:04:02;;;;;;;1.63;0.90;;;;;;;3.08;66.65;84341.00;4981149;28;20090;-58
2021/12/01 12:06:31;;;;;;;2.17;1.17;;;;;;;3.32;67.93;84333.81;5023784;28;20041;-58
2021/12/01 12:08:56;;;;;;;1.42;1.00;;;;;;;2.98;66.82;84356.22;4995189;28;20041;-54
2021/12/01 12:11:37;;;;;;;1.60;0.90;;;;;;;2.89;67.12;84329.69;5023053;28;20132;-57
2021/12/01 12:14:06;;;;;;;2.38;1.05;;;;;;;2.86;66.65;84319.94;5012549;28;20034;-57
2021/12/01 12:16:33;;;;;;;1.95;1.10;;;;;;;2.71;66.48;84317.81;5024190;28;20032;-54
2021/12/01 12:19:00;;;;;;;2.08;1.20;;;;;;;2.79;66.57;84309.78;4996511;28;20395;-55
2021/12/01 12:21:42;;;;;;;1.40;0.95;;;;;;;3.03;66.08;84311.44;5006709;28;20036;-56
2021/12/01 12:24:14;;;;;;;1.58;1.02;;;;;;;2.82;65.42;84312.16;5056355;27;20038;-55
2021/12/01 12:26:44;;;;;;;2.60;1.13;;;;;;;2.69;66.18;84317.63;5110106;27;20502;-56
2021/12/01 12:29:15;;;;;;;1.40;0.93;;;;;;;2.47;67.13;84311.47;5129722;27;20027;-54
2021/12/01 12:31:43;;;;;;;1.02;0.90;;;;;;;2.24;67.27;84329.34;5112048;27;20031;-54
2021/12/01 12:34:21;;;;;;;1.15;1.00;;;;;;;1.99;67.50;84318.13;5129552;27;20022;-55
2021/12/01 12:36:57;;;;;;;1.88;1.10;;;;;;;1.88;68.87;84313.69;5128553;27;20125;-56
2021/12/01 12:39:28;;;;;;;1.45;1.20;;;;;;;2.16;68.81;84339.34;5121028;27;20167;-56
2021/12/01 12:41:55;;;;;;;1.88;1.10;;;;;;;2.02;69.74;84309.00;5128306;27;20026;-56
2021/12/01 12:44:33;;;;;;;2.45;1.23;;;;;;;1.92;69.59;84314.09;5112346;27;20038;-56
2021/12/01 12:47:06;;;;;;;2.60;1.23;;;;;;;1.94;70.04;84306.22;5128440;27;20445;-56
2021/12/01 12:49:38;;;;;;;3.22;1.33;;;;;;;1.81;70.02;84341.25;5112538;27;20038;-57
2021/12/01 12:52:26;;;;;;;2.72;1.20;;;;;;;1.52;70.93;84308.00;5111814;27;20035;-56
2021/12/01 12:54:53;;;;;;;2.03;1.23;;;;;;;1.59;70.64;84312.03;5094690;28;20039;-53
2021/12/01 12:57:21;;;;;;;1.10;1.00;;;;;;;1.52;70.60;84306.03;5115043;27;20023;-54
2021/12/01 12:59:47;;;;;;;2.67;1.58;;;;;;;1.30;71.61;84301.78;5098872;27;20042;-55
2021/12/01 13:02:15;;;;;;;2.08;1.30;;;;;;;1.00;72.73;84293.28;5097952;27;20027;-57
2021/12/01 13:04:48;;;;;;;6.13;2.67;;;;;;;0.75;75.14;84292.72;5115573;27;20482;-55
2021/12/01 13:07:32;;;;;;;5.20;1.77;;;;;;;0.42;76.49;84300.81;5097483;27;20042;-55
2021/12/01 13:10:12;;;;;;;2.75;1.52;;;;;;;0.44;77.50;84294.91;5098728;27;20394;-53
2021/12/01 13:13:00;;;;;;;4.30;1.92;;;;;;;0.34;77.16;84299.97;5096653;27;20031;-53
2021/12/01 13:15:30;;;;;;;4.22;1.98;;;;;;;0.17;78.36;84267.97;5098372;27;20126;-53
2021/12/01 13:18:18;;;;;;;2.05;1.50;;;;;;;0.05;78.27;84282.78;5114317;27;20031;-52
2021/12/01 13:20:47;;;;;;;3.97;1.63;;;;;;;-0.08;79.51;84288.84;5091295;27;20448;-52
2021/12/01 13:23:22;;;;;;;3.45;1.85;;;;;;;-0.11;79.73;84281.78;5096460;27;20023;-55
2021/12/01 13:26:11;;;;;;;5.25;1.70;;;;;;;-0.16;81.11;84285.28;5098143;27;20096;-53
2021/12/01 13:28:45;;;;;;;4.65;1.90;;;;;;;-0.12;81.23;84280.31;5113823;27;20477;-54
2021/12/01 13:31:22;;;;;;;3.67;1.85;;;;;;;-0.15;81.86;84289.41;5098008;27;20042;-53
2021/12/01 13:34:01;;;;;;;3.65;1.80;;;;;;;-0.15;81.94;84277.94;5097316;27;20079;-53
2021/12/01 13:36:50;;;;;;;4.22;1.75;;;;;;;-0.18;81.22;84282.38;5097785;27;20035;-52
2021/12/01 13:39:19;;;;;;;6.05;2.10;;;;;;;-0.16;80.34;84287.97;5097779;27;20035;-54
2021/12/01 13:41:55;;;;;;;2.88;1.80;;;;;;;-0.19;81.39;84264.09;5113753;27;20087;-52
2021/12/01 13:44:39;;;;;;;4.00;1.98;;;;;;;-0.27;81.49;84261.97;5095942;27;20035;-55
2021/12/01 13:47:09;;;;;;;2.72;1.52;;;;;;;-0.35;80.61;84284.56;5114094;27;20413;-54
2021/12/01 13:49:48;;;;;;;2.75;1.80;;;;;;;-0.34;80.33;84270.59;5077929;28;20023;-52
2021/12/01 13:52:30;;;;;;;3.50;1.65;;;;;;;-0.44;81.19;84264.16;5099119;27;20053;-52
2021/12/01 13:55:15;;;;;;;3.40;1.80;;;;;;;-0.48;81.77;84285.19;5114370;27;20062;-56
2021/12/01 13:57:43;;;;;;;2.92;1.90;;;;;;;-0.54;82.42;84279.91;5096223;27;20122;-52
2021/12/01 14:00:09;;;;;;;6.38;2.20;;;;;;;-0.39;81.63;84287.53;5097920;27;20417;-53
2021/12/01 14:02:38;;;;;;;4.07;2.10;;;;;;;-0.60;83.42;84286.56;5113849;27;20047;-52
2021/12/01 14:05:05;;;;;;;3.55;2.10;;;;;;;-0.71;84.26;84269.38;5097251;27;20031;-55
2021/12/01 14:07:47;;;;;;;4.30;2.42;;;;;;;-0.60;84.10;84273.88;5095688;27;20027;-56
2021/12/01 14:10:22;;;;;;;5.55;2.10;;;;;;;-0.62;84.88;84262.91;5114131;27;20038;-55
2021/12/01 14:12:56;;;;;;;7.75;3.05;;;;;;;-0.63;84.20;84271.47;5096264;27;20048;-55
2021/12/01 14:15:31;;;;;;;4.03;2.17;;;;;;;-0.57;81.92;84267.50;5097054;27;20035;-56
2021/12/01 14:17:59;;;;;;;4.45;1.70;;;;;;;-0.78;82.76;84269.94;5112318;27;20027;-56
2021/12/01 14:20:25;;;;;;;2.72;1.67;;;;;;;-0.86;82.94;84271.75;5097147;27;20421;-52
2021/12/01 14:22:57;;;;;;;2.63;1.55;;;;;;;-0.84;82.54;84271.22;5096270;27;20019;-54
2021/12/01 14:25:25;;;;;;;5.57;2.10;;;;;;;-0.96;83.15;84268.69;5096990;27;20122;-55
2021/12/01 14:28:11;;;;;;;2.42;1.42;;;;;;;-0.96;83.45;84260.63;5096183;27;20444;-55
2021/12/01 14:30:48;;;;;;;4.38;1.90;;;;;;;-0.95;83.18;84264.78;5085628;28;20035;-56
2021/12/01 14:33:40;;;;;;;3.35;1.63;;;;;;;-0.89;82.52;84250.56;5096251;27;20088;-53
2021/12/01 14:37:26;;;;;;;5.00;1.70;;;;;;;-0.96;82.92;84244.53;5011516;28;20180;-55
2021/12/01 14:41:13;;;;;;;3.97;1.70;;;;;;;-1.05;83.78;84252.94;4988814;28;20050;-55
2021/12/01 14:48:21;;;;;;;3.67;1.60;;;;;;;-1.25;84.71;84246.06;5189902;27;20915;-56
2021/12/01 14:52:14;;;;;;;3.90;1.85;;;;;;;-1.35;85.56;84232.28;4966156;28;20047;-56
2021/12/01 15:10:29;;;;;;;3.38;2.00;;;;;;;-1.39;86.53;84236.47;5149375;27;20389;-56
2021/12/01 15:14:16;;;;;;;4.00;1.90;;;;;;;-1.39;86.89;84218.44;4901307;29;20051;-54
2021/12/01 15:24:55;;;;;;;3.63;2.00;;;;;;;-1.59;88.06;84210.84;5087875;27;20382;-57
2021/12/01 15:28:42;;;;;;;4.13;2.13;;;;;;;-1.58;88.29;84206.94;4896808;29;20047;-56
2021/12/01 15:32:16;;;;;;;5.60;1.92;;;;;;;-1.67;88.63;84208.00;4779325;29;20047;-53
2021/12/01 15:39:45;;;;;;;5.88;2.13;;;;;;;-1.61;89.14;84202.59;5087228;28;20600;-55
2021/12/01 15:43:11;;;;;;;3.85;1.90;;;;;;;-1.65;89.34;84207.50;4906530;29;20127;-55
2021/12/01 15:46:59;;;;;;;4.85;2.13;;;;;;;-1.66;89.51;84203.34;4726788;30;20064;-55
2021/12/01 15:54:04;;;;;;;;;;;;;;;-1.64;90.04;84198.22;5190113;27;20133;-54
2021/12/01 15:57:50;;;;;;;6.15;2.28;;;;;;;-1.69;90.45;84199.00;4985422;28;19920;-54
2021/12/01 16:01:37;;;;;;;4.57;2.22;;;;;;;-1.65;90.63;84199.47;4816329;29;20065;-55
2021/12/01 16:08:03;;;;;;;5.00;2.00;;;;;;;-1.68;91.42;84182.44;5107668;27;20393;-53
2021/12/01 16:11:49;;;;;;;4.35;2.20;;;;;;;-1.74;92.22;84207.81;4912614;29;20055;-58
2021/12/01 16:26:17;;;;;;;4.53;2.20;;;;;;;-1.84;94.41;84189.41;5108554;27;20384;-57
2021/12/01 16:29:41;;;;;;;5.72;2.78;;;;;;;-1.91;95.61;84187.25;4966231;28;20095;-58
2021/12/01 16:33:28;;;;;;;5.95;2.80;;;;;;;-1.97;95.77;84180.53;4870725;29;20100;-57
2021/12/01 16:39:54;;;;;;;6.40;2.47;;;;;;;-2.04;96.62;84190.56;5149131;27;20911;-57
2021/12/01 16:43:41;;;;;;;6.57;2.63;;;;;;;-2.05;96.86;84180.34;4847892;29;20409;-57
2021/12/01 16:54:55;;;;;;;7.88;2.60;;;;;;;-2.11;97.31;84177.00;5107744;27;20388;-59
2021/12/01 16:58:42;;;;;;;5.63;2.20;;;;;;;-2.12;97.87;84168.22;4952614;28;20039;-55
2021/12/01 17:02:09;;;;;;;6.50;2.40;;;;;;;-2.13;98.11;84171.41;4833981;29;20045;-57
2021/12/01 17:09:17;;;;;;;7.70;3.10;;;;;;;-2.10;98.30;84173.06;5165340;27;20696;-53
2021/12/01 17:12:27;;;;;;;7.85;2.65;;;;;;;-2.11;97.65;84177.72;4941987;29;20047;-56
2021/12/01 17:15:33;;;;;;;5.47;2.65;;;;;;;-2.09;96.94;84169.91;4823547;29;20050;-57
2021/12/01 17:19:20;;;;;;;8.10;3.00;;;;;;;-2.07;96.49;84166.75;4761711;30;20102;-56
2021/12/01 17:25:49;;;;;;;9.07;4.07;;;;;;;-2.05;96.68;84181.06;5186435;27;20383;-56
2021/12/01 17:29:35;;;;;;;7.28;3.38;;;;;;;-2.07;97.36;84180.84;4985192;28;20510;-56
2021/12/01 17:33:01;;;;;;;5.57;2.60;;;;;;;-2.03;97.31;84175.94;4885118;29;20051;-54
2021/12/01 17:36:48;;;;;;;5.47;2.40;;;;;;;-2.10;97.67;84171.16;4868095;29;20052;-54
2021/12/01 17:40:34;;;;;;;4.57;2.22;;;;;;;-2.11;97.80;84163.59;4834019;29;20554;-56
2021/12/01 17:47:10;;;;;;;8.05;2.80;;;;;;;-2.12;97.26;84157.53;5108415;27;20387;-56
2021/12/01 17:50:38;;;;;;;7.45;3.15;;;;;;;-2.18;97.69;84161.50;4966515;28;20085;-53
2021/12/01 17:54:24;;;;;;;6.18;2.83;;;;;;;-2.17;98.01;84160.25;4829880;29;20057;-56
2021/12/01 18:04:16;;;;;;;7.72;3.13;;;;;;;-2.12;98.37;84138.78;5147606;27;20377;-55
2021/12/01 18:08:07;;;;;;;5.70;2.72;;;;;;;-2.12;98.18;84133.41;4931760;29;20054;-54
2021/12/01 18:11:49;;;;;;;8.68;2.78;;;;;;;-2.08;97.84;84136.53;4779801;30;20453;-57
2021/12/01 18:18:15;;;;;;;5.53;2.97;;;;;;;-2.04;98.15;84137.00;5189689;27;20387;-54
2021/12/01 18:21:41;;;;;;;6.90;2.88;;;;;;;-2.05;98.42;84140.88;4965888;28;20324;-55
2021/12/01 18:25:07;;;;;;;5.78;2.50;;;;;;;-2.01;99.16;84142.59;4834878;29;20087;-54
2021/12/01 18:32:14;;;;;;;6.10;2.70;;;;;;;-2.00;99.23;84144.03;5169892;27;20213;-56
2021/12/01 18:36:04;;;;;;;5.70;2.55;;;;;;;-1.95;98.19;84154.69;4927408;29;20036;-54
2021/12/01 18:39:48;;;;;;;6.90;3.10;;;;;;;-1.90;97.31;84153.19;4797861;29;20443;-55
2021/12/01 18:46:34;;;;;;;7.28;2.83;;;;;;;-1.94;97.97;84150.78;5107813;27;20878;-55
2021/12/01 18:50:20;;;;;;;6.47;2.63;;;;;;;-1.94;97.08;84150.78;4908827;29;20077;-56
2021/12/01 18:54:07;;;;;;;6.75;2.97;;;;;;;-2.00;98.27;84146.72;4794329;29;20043;-57
2021/12/01 19:00:53;;;;;;;7.05;2.92;;;;;;;-2.02;98.70;84136.47;5191458;27;20375;-55
2021/12/01 19:04:40;;;;;;;7.00;2.83;;;;;;;-2.03;99.92;84143.78;4889827;29;20523;-54
2021/12/01 19:14:59;;;;;;;8.93;4.38;;;;;;;-2.32;100.00;84126.56;5108543;27;20837;-54
2021/12/01 19:18:46;;;;;;;9.65;4.15;;;;;;;-2.31;100.00;84133.34;4985032;28;20049;-55
2021/12/01 19:30:08;;;;;;;10.60;4.63;;;;;;;-2.45;100.00;84134.44;5099377;27;20377;-54
2021/12/01 19:33:56;;;;;;;8.00;4.30;;;;;;;-2.47;100.00;84136.88;4898418;29;20429;-57
2021/12/01 20:11:45;;;;;;;7.57;3.80;;;;;;;-2.46;100.00;84119.63;4761390;30;20180;-57
2021/12/01 20:15:32;;;;;;;8.93;4.15;;;;;;;-2.52;100.00;84114.31;4810229;29;20046;-57